Time;durP1;ratioP1;P1;durP2;ratioP2;P2;SDS_P1;SDS_P2;PMS_P1;PMS_P2;Temp;Humidity;BMP_temperature;BMP_pressure;BME280_temperature;BME280_humidity;BME280_pressure;Samples;Min_cycle;Max_cycle;Signal;HPM_P1;HPM_P2
2023/10/05 00:01:18;;;;;;;10.05;2.90;;;;;;;13.60;92.05;102222.66;5093650;28;20032;-61
2023/10/05 00:03:51;;;;;;;14.93;2.97;;;;;;;13.62;92.18;102226.25;5093649;28;20032;-61
2023/10/05 00:06:23;;;;;;;7.95;2.53;;;;;;;13.61;92.10;102223.53;5093294;28;20059;-60
2023/10/05 00:08:52;;;;;;;11.98;2.78;;;;;;;13.63;92.13;102224.50;5093261;28;20028;-60
2023/10/05 00:11:36;;;;;;;10.48;3.20;;;;;;;13.61;91.98;102229.75;5093215;28;20056;-60
2023/10/05 00:14:07;;;;;;;7.90;2.75;;;;;;;13.60;92.18;102237.69;5093364;28;20036;-60
2023/10/05 00:16:36;;;;;;;10.40;2.90;;;;;;;13.60;92.53;102233.28;5092980;28;20070;-60
2023/10/05 00:19:13;;;;;;;7.03;3.00;;;;;;;13.63;92.38;102241.31;5093318;28;20024;-60
2023/10/05 00:21:42;;;;;;;13.60;3.03;;;;;;;13.61;92.33;102245.69;5092517;28;20452;-60
2023/10/05 00:24:08;;;;;;;8.55;2.60;;;;;;;13.57;92.31;102241.19;5092776;28;20444;-60
2023/10/05 00:26:34;;;;;;;10.05;2.97;;;;;;;13.58;92.67;102244.75;5093188;28;20131;-59
2023/10/05 00:31:38;;;;;;;10.18;2.80;;;;;;;13.61;92.61;102256.31;5093119;28;20032;-60
2023/10/05 00:34:04;;;;;;;10.23;2.97;;;;;;;13.62;92.63;102251.88;5092816;28;20433;-60
2023/10/05 00:36:34;;;;;;;11.68;3.10;;;;;;;13.63;92.11;102256.38;5093200;28;20025;-61
2023/10/05 00:39:01;;;;;;;8.95;2.97;;;;;;;13.58;92.61;102264.25;5091956;28;20046;-60
2023/10/05 00:41:28;;;;;;;9.07;2.90;;;;;;;13.53;93.02;102266.81;5092806;28;20036;-60
2023/10/05 00:43:54;;;;;;;12.20;3.00;;;;;;;13.56;92.89;102259.75;5092830;28;20073;-60
2023/10/05 00:46:21;;;;;;;10.25;3.25;;;;;;;13.55;92.90;102269.47;5091250;28;20024;-60
2023/10/05 00:51:31;;;;;;;13.65;2.90;;;;;;;13.56;92.71;102260.63;5092869;28;20400;-60
2023/10/05 00:53:58;;;;;;;9.65;2.67;;;;;;;13.49;92.99;102259.63;5093045;28;20032;-60
2023/10/05 00:56:24;;;;;;;9.48;2.80;;;;;;;13.52;93.16;102264.97;5093097;28;20032;-60
2023/10/05 00:59:05;;;;;;;12.18;2.85;;;;;;;13.51;93.09;102273.81;5092826;28;20031;-60
2023/10/05 01:02:14;;;;;;;12.95;3.08;;;;;;;13.53;93.01;102273.84;5092966;28;20032;-60
2023/10/05 01:04:34;;;;;;;15.70;3.40;;;;;;;13.51;93.31;102268.50;5092243;28;20044;-60
2023/10/05 01:07:18;;;;;;;10.18;3.15;;;;;;;13.48;93.53;102262.22;5091323;28;20036;-60
2023/10/05 01:14:50;;;;;;;9.52;2.80;;;;;;;13.51;93.50;102270.28;5092445;28;20032;-60
2023/10/05 01:17:20;;;;;;;10.80;3.25;;;;;;;13.42;93.63;102260.34;5092626;28;20040;-60
2023/10/05 01:19:55;;;;;;;10.70;3.08;;;;;;;13.45;93.71;102263.06;5091268;28;20392;-60
2023/10/05 01:22:22;;;;;;;9.98;2.90;;;;;;;13.45;93.83;102260.44;5092786;28;20032;-61
2023/10/05 01:24:50;;;;;;;10.02;3.00;;;;;;;13.45;93.92;102270.16;5092505;28;20099;-60
2023/10/05 01:27:20;;;;;;;13.65;3.20;;;;;;;13.45;93.99;102263.06;5092597;28;20025;-61
2023/10/05 01:29:46;;;;;;;8.90;3.10;;;;;;;13.41;94.25;102268.28;5092702;28;20024;-60
2023/10/05 01:32:14;;;;;;;6.90;2.65;;;;;;;13.36;94.52;102260.22;5092223;28;20484;-60
2023/10/05 01:34:40;;;;;;;10.95;2.90;;;;;;;13.34;94.85;102256.63;5093931;28;20028;-60
2023/10/05 01:37:05;;;;;;;11.05;2.90;;;;;;;13.36;94.91;102268.19;5096224;28;20059;-60
2023/10/05 01:39:35;;;;;;;9.63;2.88;;;;;;;13.32;95.22;102258.38;5096388;28;20070;-60
2023/10/05 01:42:05;;;;;;;8.82;3.00;;;;;;;13.31;95.37;102267.16;5095617;28;20051;-60
2023/10/05 01:44:30;;;;;;;8.40;2.75;;;;;;;13.32;95.34;102257.44;5095477;28;20033;-60
2023/10/05 01:46:58;;;;;;;11.93;3.10;;;;;;;13.31;95.65;102263.63;5094745;28;20576;-60
2023/10/05 01:49:25;;;;;;;9.15;3.20;;;;;;;13.31;95.56;102251.25;5095773;28;20028;-60
2023/10/05 01:51:52;;;;;;;10.02;3.03;;;;;;;13.34;95.26;102248.66;5095960;28;20028;-60
2023/10/05 01:54:17;;;;;;;7.75;3.20;;;;;;;13.33;95.54;102253.94;5095760;28;20032;-60
2023/10/05 01:56:44;;;;;;;11.82;3.33;;;;;;;13.30;95.63;102243.25;5096130;28;20031;-60
2023/10/05 01:59:12;;;;;;;9.85;3.30;;;;;;;13.31;95.68;102235.31;5095704;28;20139;-60
2023/10/05 02:01:40;;;;;;;12.13;3.38;;;;;;;13.32;95.68;102241.50;5094382;28;20024;-60
2023/10/05 02:04:06;;;;;;;10.23;2.92;;;;;;;13.30;95.70;102244.16;5095937;28;20043;-60
2023/10/05 02:06:49;;;;;;;10.98;3.30;;;;;;;13.31;95.82;102242.38;5095686;28;20092;-60
2023/10/05 02:09:17;;;;;;;9.45;3.33;;;;;;;13.34;95.41;102240.69;5095614;28;20134;-60
2023/10/05 02:11:43;;;;;;;13.48;3.10;;;;;;;13.31;95.66;102253.00;5095760;28;20024;-60
2023/10/05 02:14:12;;;;;;;10.68;3.00;;;;;;;13.30;95.89;102248.56;5095734;28;20038;-60
2023/10/05 02:16:38;;;;;;;10.75;2.97;;;;;;;13.31;95.80;102243.28;5095318;28;20443;-60
2023/10/05 02:19:07;;;;;;;13.85;3.10;;;;;;;13.27;96.05;102236.09;5095676;28;20028;-60
2023/10/05 02:21:36;;;;;;;18.48;3.53;;;;;;;13.28;95.75;102230.84;5095626;28;20058;-60
2023/10/05 02:24:18;;;;;;;8.90;2.88;;;;;;;13.25;96.00;102245.81;5095533;28;20036;-60
2023/10/05 02:29:30;;;;;;;8.35;3.00;;;;;;;13.21;96.59;102241.25;5095526;28;20044;-60
2023/10/05 02:34:33;;;;;;;9.63;3.13;;;;;;;13.16;96.54;102243.81;5095512;28;20059;-60
2023/10/05 02:37:00;;;;;;;11.65;3.20;;;;;;;13.18;96.75;102241.19;5095338;28;20036;-60
2023/10/05 02:39:25;;;;;;;12.23;3.20;;;;;;;13.17;96.35;102234.09;5094942;28;20073;-60
2023/10/05 02:41:51;;;;;;;9.65;2.90;;;;;;;13.17;96.49;102231.44;5094525;28;20044;-60
2023/10/05 02:44:19;;;;;;;9.05;3.00;;;;;;;13.10;96.53;102224.19;5094855;28;20066;-59
2023/10/05 02:46:48;;;;;;;8.35;3.00;;;;;;;13.05;97.04;102224.09;5094112;28;20515;-61
2023/10/05 02:49:18;;;;;;;12.40;3.22;;;;;;;13.02;97.03;102214.31;5094992;28;20379;-59
2023/10/05 02:51:44;;;;;;;10.85;3.15;;;;;;;12.98;96.99;102217.75;5094975;28;20115;-60
2023/10/05 02:54:10;;;;;;;9.02;3.25;;;;;;;12.98;97.22;102214.22;5094602;28;20533;-60
2023/10/05 02:56:39;;;;;;;10.05;3.33;;;;;;;12.96;97.11;102213.25;5094512;28;20123;-60
2023/10/05 02:59:08;;;;;;;9.43;3.10;;;;;;;12.93;97.56;102221.16;5094516;28;20053;-60
2023/10/05 03:01:39;;;;;;;11.90;3.05;;;;;;;12.92;97.41;102220.25;5094503;28;20020;-60
2023/10/05 03:04:16;;;;;;;12.27;2.70;;;;;;;12.93;97.44;102226.44;5094389;28;20028;-60
2023/10/05 03:06:42;;;;;;;14.63;3.17;;;;;;;12.91;97.68;102225.53;5094830;28;20032;-60
2023/10/05 03:09:08;;;;;;;11.00;4.13;;;;;;;12.89;97.46;102224.59;5094268;28;20036;-60
2023/10/05 03:11:38;;;;;;;8.45;3.05;;;;;;;12.88;97.80;102233.41;5093021;28;20020;-60
2023/10/05 03:14:05;;;;;;;5.15;2.85;;;;;;;12.90;97.56;102227.31;5094206;28;20032;-60
2023/10/05 03:16:35;;;;;;;10.88;3.00;;;;;;;12.91;97.52;102220.22;5094040;28;20024;-60
2023/10/05 03:19:00;;;;;;;11.00;3.25;;;;;;;12.92;97.68;102211.41;5094212;28;20032;-59
2023/10/05 03:21:26;;;;;;;12.77;3.15;;;;;;;12.89;97.68;102214.91;5094155;28;20029;-60
2023/10/05 03:23:52;;;;;;;8.45;3.10;;;;;;;12.86;98.16;102212.16;5094148;28;20020;-60
2023/10/05 03:26:18;;;;;;;12.73;3.50;;;;;;;12.80;98.15;102212.00;5094446;28;20035;-60
2023/10/05 03:28:44;;;;;;;7.88;2.85;;;;;;;12.84;98.07;102207.69;5092706;28;20024;-60
2023/10/05 03:31:32;;;;;;;15.15;3.22;;;;;;;12.83;98.07;102220.03;5093881;28;20127;-59
2023/10/05 03:33:57;;;;;;;7.78;2.97;;;;;;;12.81;97.98;102213.81;5094271;28;20036;-61
2023/10/05 03:36:23;;;;;;;8.90;2.83;;;;;;;12.79;98.22;102207.56;5094085;28;20020;-61
2023/10/05 03:38:57;;;;;;;9.30;3.10;;;;;;;12.77;98.35;102207.53;5093854;28;20111;-61
2023/10/05 03:41:26;;;;;;;9.05;3.10;;;;;;;12.78;98.36;102203.13;5092622;28;20035;-61
2023/10/05 03:43:55;;;;;;;9.35;2.88;;;;;;;12.74;98.57;102210.13;5093630;28;20044;-61
2023/10/05 03:46:26;;;;;;;14.50;3.00;;;;;;;12.77;98.47;102219.91;5093713;28;20393;-61
2023/10/05 03:49:00;;;;;;;9.48;3.10;;;;;;;12.73;98.76;102215.41;5093998;28;20028;-61
2023/10/05 03:51:26;;;;;;;11.40;3.25;;;;;;;12.67;98.78;102205.50;5093765;28;20110;-60
2023/10/05 03:53:51;;;;;;;9.38;3.13;;;;;;;12.67;99.12;102218.78;5093798;28;20024;-61
2023/10/05 03:56:21;;;;;;;9.82;3.13;;;;;;;12.69;98.98;102217.06;5093495;28;20028;-60
2023/10/05 03:58:47;;;;;;;12.25;3.33;;;;;;;12.64;99.22;102212.53;5093411;28;20055;-61
2023/10/05 04:01:13;;;;;;;8.80;2.90;;;;;;;12.63;99.37;102216.91;5093750;28;20032;-60
2023/10/05 04:03:40;;;;;;;12.52;3.38;;;;;;;12.58;99.73;102207.94;5092323;28;20055;-61
2023/10/05 04:06:28;;;;;;;10.10;3.20;;;;;;;12.60;99.69;102210.66;5093415;28;20020;-60
2023/10/05 04:08:59;;;;;;;9.70;3.00;;;;;;;12.55;100.00;102210.56;5092905;28;20363;-60
2023/10/05 04:11:29;;;;;;;8.65;3.17;;;;;;;12.52;100.00;102208.72;5093319;28;20039;-62
2023/10/05 04:13:55;;;;;;;10.68;3.65;;;;;;;12.58;99.78;102207.06;5093282;28;20103;-61
2023/10/05 04:16:28;;;;;;;10.00;3.28;;;;;;;12.59;99.93;102209.75;5091715;28;20032;-61
2023/10/05 04:18:54;;;;;;;9.80;3.20;;;;;;;12.61;99.41;102217.75;5093604;28;20377;-61
2023/10/05 04:21:23;;;;;;;8.23;3.55;;;;;;;12.59;99.69;102219.44;5093158;28;20484;-61
2023/10/05 04:23:59;;;;;;;14.63;3.30;;;;;;;12.58;99.57;102215.91;5093389;28;20021;-61
2023/10/05 04:26:39;;;;;;;7.28;3.22;;;;;;;12.58;99.72;102218.56;5085220;28;20422;-61
2023/10/05 04:29:07;;;;;;;9.35;3.80;;;;;;;12.54;99.60;102220.22;5072143;28;20032;-61
2023/10/05 04:31:32;;;;;;;10.40;3.28;;;;;;;12.50;100.00;102220.13;5072922;28;20035;-61
2023/10/05 04:33:59;;;;;;;8.85;3.25;;;;;;;12.50;100.00;102220.13;5072729;28;20107;-61
2023/10/05 04:36:25;;;;;;;11.80;3.20;;;;;;;12.52;100.00;102221.06;5071520;28;20056;-61
2023/10/05 04:38:54;;;;;;;13.27;3.45;;;;;;;12.50;100.00;102226.34;5072906;28;20103;-61
2023/10/05 04:41:39;;;;;;;8.60;3.33;;;;;;;12.47;100.00;102222.72;5072883;28;20028;-61
2023/10/05 04:44:12;;;;;;;9.65;3.45;;;;;;;12.42;100.00;102219.03;5073059;28;20047;-61
2023/10/05 04:46:45;;;;;;;11.93;3.58;;;;;;;12.41;100.00;102220.78;5071362;28;20516;-61
2023/10/05 04:49:12;;;;;;;14.13;3.58;;;;;;;12.42;100.00;102233.22;5071337;28;20082;-61
2023/10/05 04:51:39;;;;;;;10.23;3.45;;;;;;;12.42;100.00;102226.97;5072767;28;20033;-61
2023/10/05 04:54:12;;;;;;;11.52;3.83;;;;;;;12.39;100.00;102227.81;5072722;28;20536;-62
2023/10/05 04:56:47;;;;;;;10.57;3.50;;;;;;;12.40;100.00;102220.75;5072794;28;20028;-60
2023/10/05 05:06:59;;;;;;;8.05;2.70;;;;;;;12.45;100.00;102216.47;5072871;28;20015;-61
2023/10/05 05:09:35;;;;;;;9.15;3.20;;;;;;;12.38;100.00;102215.44;5074067;28;20082;-61
2023/10/05 05:12:05;;;;;;;13.50;3.25;;;;;;;12.37;100.00;102218.91;5076550;28;20474;-62
2023/10/05 05:14:32;;;;;;;8.30;3.50;;;;;;;12.31;100.00;102216.13;5076528;28;20032;-59
2023/10/05 05:17:02;;;;;;;11.23;3.60;;;;;;;12.31;100.00;102224.06;5076330;28;20017;-61
2023/10/05 05:19:30;;;;;;;9.93;3.47;;;;;;;12.30;100.00;102219.63;5076220;28;20074;-62
2023/10/05 05:21:57;;;;;;;11.00;3.55;;;;;;;12.32;100.00;102219.66;5075041;28;20064;-61
2023/10/05 05:24:22;;;;;;;13.18;3.50;;;;;;;12.32;100.00;102220.56;5076137;28;20160;-61
2023/10/05 05:26:48;;;;;;;12.80;3.38;;;;;;;12.34;100.00;102228.56;5076436;28;20056;-61
2023/10/05 05:29:14;;;;;;;9.93;3.58;;;;;;;12.38;100.00;102222.50;5075972;28;20112;-60
2023/10/05 05:31:41;;;;;;;11.38;3.42;;;;;;;12.39;100.00;102225.16;5076317;28;20024;-60
2023/10/05 05:34:07;;;;;;;12.38;3.60;;;;;;;12.34;100.00;102229.47;5076031;28;20082;-61
2023/10/05 05:36:36;;;;;;;13.43;3.63;;;;;;;12.38;100.00;102230.44;5074903;28;20024;-61
2023/10/05 05:39:03;;;;;;;11.20;3.40;;;;;;;12.43;100.00;102235.00;5076116;28;20063;-60
2023/10/05 05:41:29;;;;;;;15.27;3.90;;;;;;;12.43;100.00;102244.69;5076010;28;20029;-61
2023/10/05 05:43:56;;;;;;;12.75;3.90;;;;;;;12.42;100.00;102235.84;5075672;28;20048;-61
2023/10/05 05:46:22;;;;;;;9.50;3.65;;;;;;;12.43;100.00;102235.00;5075488;28;20448;-61
2023/10/05 05:48:52;;;;;;;11.32;3.60;;;;;;;12.46;100.00;102240.38;5074443;28;20086;-61
2023/10/05 05:51:21;;;;;;;13.98;3.58;;;;;;;12.46;100.00;102250.06;5075922;28;20028;-60
2023/10/05 05:53:47;;;;;;;7.78;3.40;;;;;;;12.48;100.00;102251.00;5075247;28;20029;-62
2023/10/05 05:56:19;;;;;;;9.02;3.30;;;;;;;12.48;100.00;102251.91;5075301;28;20070;-61
2023/10/05 05:58:50;;;;;;;8.15;3.45;;;;;;;12.54;100.00;102253.81;5075391;28;20086;-61
2023/10/05 06:01:16;;;;;;;11.00;3.60;;;;;;;12.56;100.00;102246.81;5073598;28;20028;-62
2023/10/05 06:03:44;;;;;;;8.60;3.38;;;;;;;12.56;100.00;102249.47;5074917;28;20463;-60
2023/10/05 06:06:10;;;;;;;10.98;3.58;;;;;;;12.59;100.00;102248.63;5075087;28;20035;-61
2023/10/05 06:08:35;;;;;;;11.95;3.90;;;;;;;12.63;100.00;102254.03;5074796;28;20029;-62
2023/10/05 06:11:06;;;;;;;9.52;3.47;;;;;;;12.65;100.00;102248.78;5074914;28;20112;-61
2023/10/05 06:13:36;;;;;;;10.85;3.67;;;;;;;12.64;100.00;102252.31;5074815;28;20047;-61
2023/10/05 06:16:06;;;;;;;6.47;3.10;;;;;;;12.67;100.00;102255.00;5074527;28;20475;-61
2023/10/05 06:18:31;;;;;;;11.80;3.47;;;;;;;12.66;100.00;102255.88;5074229;28;20036;-61
2023/10/05 06:20:57;;;;;;;11.60;3.55;;;;;;;12.66;100.00;102270.03;5073583;28;20032;-61
2023/10/05 06:23:22;;;;;;;13.00;3.75;;;;;;;12.65;100.00;102260.28;5074495;28;20027;-61
2023/10/05 06:25:50;;;;;;;15.40;4.22;;;;;;;12.65;100.00;102259.41;5074491;28;20386;-61
2023/10/05 06:28:15;;;;;;;19.33;4.22;;;;;;;12.72;100.00;102270.19;5074019;28;20039;-61
2023/10/05 06:30:41;;;;;;;13.63;3.80;;;;;;;12.75;100.00;102272.91;5074405;28;20032;-61
2023/10/05 06:33:07;;;;;;;11.18;3.72;;;;;;;12.77;100.00;102278.28;5073082;28;20121;-61
2023/10/05 06:35:33;;;;;;;13.50;4.13;;;;;;;12.78;100.00;102280.94;5074102;28;20035;-61
2023/10/05 06:37:59;;;;;;;8.57;3.78;;;;;;;12.79;100.00;102282.72;5074225;28;20036;-61
2023/10/05 06:40:25;;;;;;;12.32;3.80;;;;;;;12.83;100.00;102288.13;5074385;28;20050;-61
2023/10/05 06:42:52;;;;;;;11.75;3.67;;;;;;;12.85;100.00;102283.75;5074110;28;20045;-61
2023/10/05 06:45:19;;;;;;;9.43;4.00;;;;;;;12.85;100.00;102287.31;5074318;28;20033;-61
2023/10/05 06:47:45;;;;;;;14.43;4.00;;;;;;;12.87;100.00;102274.97;5074352;28;20037;-60
2023/10/05 06:50:11;;;;;;;9.05;3.40;;;;;;;12.87;100.00;102282.03;5074114;28;20025;-61
2023/10/05 06:52:46;;;;;;;9.65;3.78;;;;;;;12.87;100.00;102288.22;5074129;28;20493;-61
2023/10/05 06:55:13;;;;;;;16.05;3.58;;;;;;;12.92;100.00;102298.97;5072817;28;20139;-60
2023/10/05 06:57:40;;;;;;;13.75;3.63;;;;;;;12.93;100.00;102309.63;5074159;28;20115;-61
2023/10/05 07:00:22;;;;;;;9.50;3.78;;;;;;;12.94;100.00;102303.44;5072635;28;20031;-62
2023/10/05 07:02:50;;;;;;;12.68;4.18;;;;;;;12.97;100.00;102307.91;5074087;28;20085;-61
2023/10/05 07:05:16;;;;;;;14.68;3.75;;;;;;;12.97;100.00;102302.63;5074051;28;20032;-61
2023/10/05 07:07:42;;;;;;;13.77;3.90;;;;;;;13.09;100.00;102318.84;5073768;28;20017;-61
2023/10/05 07:10:10;;;;;;;12.40;4.13;;;;;;;13.13;100.00;102315.41;5073689;28;20024;-60
2023/10/05 07:12:41;;;;;;;15.93;4.25;;;;;;;13.14;100.00;102319.84;5073722;28;20029;-61
2023/10/05 07:15:08;;;;;;;15.75;3.83;;;;;;;13.19;100.00;102318.22;5073428;28;20036;-60
2023/10/05 07:17:34;;;;;;;11.82;3.50;;;;;;;13.26;100.00;102321.91;5073775;28;20060;-61
2023/10/05 07:19:59;;;;;;;14.05;4.13;;;;;;;13.32;100.00;102322.09;5073511;28;20107;-61
2023/10/05 07:22:25;;;;;;;13.88;4.18;;;;;;;13.35;100.00;102327.44;5073765;28;20188;-61
2023/10/05 07:24:50;;;;;;;9.75;4.07;;;;;;;13.37;100.00;102333.69;5073443;28;20020;-61
2023/10/05 07:27:19;;;;;;;11.80;3.85;;;;;;;13.46;100.00;102330.34;5073343;28;20074;-61
2023/10/05 07:29:45;;;;;;;9.90;3.60;;;;;;;13.55;100.00;102335.88;5073560;28;20052;-60
2023/10/05 07:32:12;;;;;;;12.57;4.30;;;;;;;13.63;99.64;102336.06;5073461;28;20025;-61
2023/10/05 07:34:41;;;;;;;13.13;3.83;;;;;;;13.73;99.10;102343.34;5073585;28;20033;-61
2023/10/05 07:37:12;;;;;;;10.02;4.07;;;;;;;13.82;99.05;102348.84;5073452;28;20029;-61
2023/10/05 07:39:40;;;;;;;11.38;4.15;;;;;;;13.93;98.05;102349.09;5072004;28;20064;-61
2023/10/05 07:42:08;;;;;;;12.88;4.40;;;;;;;14.04;97.68;102347.53;5072682;28;20068;-61
2023/10/05 07:44:36;;;;;;;12.40;3.88;;;;;;;14.18;97.11;102362.03;5072695;28;20390;-60
2023/10/05 07:47:02;;;;;;;10.27;3.83;;;;;;;14.32;95.96;102369.38;5072837;28;20028;-61
2023/10/05 07:49:29;;;;;;;9.95;3.75;;;;;;;14.39;95.48;102355.31;5073242;28;20045;-61
2023/10/05 07:51:54;;;;;;;11.68;3.97;;;;;;;14.52;95.43;102352.09;5073233;28;20056;-61
2023/10/05 07:54:20;;;;;;;15.98;4.10;;;;;;;14.62;94.18;102358.47;5073297;28;20063;-61
2023/10/05 07:56:45;;;;;;;13.88;3.75;;;;;;;14.71;93.63;102358.63;5073243;28;20043;-61
2023/10/05 07:59:13;;;;;;;14.95;4.03;;;;;;;14.87;93.11;102351.81;5071660;28;20519;-61
2023/10/05 08:01:43;;;;;;;7.35;3.50;;;;;;;15.03;93.08;102359.16;5073115;28;20059;-60
2023/10/05 08:04:11;;;;;;;14.95;3.70;;;;;;;15.22;91.88;102355.94;5073062;28;20043;-61
2023/10/05 08:06:43;;;;;;;9.35;3.83;;;;;;;15.38;90.46;102364.19;5073051;28;20033;-61
2023/10/05 08:09:14;;;;;;;9.60;3.40;;;;;;;15.59;90.44;102364.50;5072981;28;20036;-61
2023/10/05 08:11:40;;;;;;;9.13;3.60;;;;;;;15.75;88.95;102369.19;5073042;28;20037;-61
2023/10/05 08:14:07;;;;;;;9.35;3.67;;;;;;;15.89;87.51;102368.50;5072946;28;20402;-61
2023/10/05 08:16:34;;;;;;;12.27;3.67;;;;;;;16.03;87.61;102373.13;5072796;28;20044;-61
2023/10/05 08:18:59;;;;;;;9.85;3.92;;;;;;;16.32;85.88;102374.38;5072644;28;20090;-61
2023/10/05 08:21:25;;;;;;;12.15;3.78;;;;;;;16.58;84.14;102363.97;5072965;28;20025;-61
2023/10/05 08:23:51;;;;;;;10.80;3.78;;;;;;;16.76;83.21;102365.06;5072805;28;20418;-62
2023/10/05 08:26:17;;;;;;;11.73;3.75;;;;;;;16.89;82.56;102374.09;5072592;28;20056;-62
2023/10/05 08:28:48;;;;;;;13.90;3.50;;;;;;;17.01;81.49;102378.66;5072471;28;20029;-62
2023/10/05 08:31:15;;;;;;;8.65;3.20;;;;;;;17.14;80.50;102374.31;5072447;28;20443;-61
2023/10/05 08:33:41;;;;;;;9.13;3.25;;;;;;;17.18;79.70;102371.69;5071153;28;20036;-60
2023/10/05 08:36:11;;;;;;;10.60;3.50;;;;;;;17.20;80.11;102383.25;5072322;28;20032;-60
2023/10/05 08:38:37;;;;;;;11.52;3.38;;;;;;;17.30;79.73;102386.91;5072409;28;20477;-61
2023/10/05 08:41:11;;;;;;;12.20;3.50;;;;;;;17.35;78.95;102386.94;5072328;28;20052;-61
2023/10/05 08:43:46;;;;;;;10.10;3.28;;;;;;;17.28;78.98;102391.34;5070520;28;20052;-61
2023/10/05 08:46:14;;;;;;;8.98;3.25;;;;;;;17.19;79.48;102386.81;5072085;28;20489;-60
2023/10/05 08:48:41;;;;;;;9.18;3.67;;;;;;;17.12;79.09;102397.44;5072517;28;20028;-61
2023/10/05 08:51:12;;;;;;;13.93;3.40;;;;;;;16.99;79.63;102393.75;5072138;28;20512;-61
2023/10/05 08:53:43;;;;;;;12.43;3.70;;;;;;;16.93;80.08;102397.28;5072328;28;20041;-62
2023/10/05 08:56:13;;;;;;;8.25;3.35;;;;;;;16.82;80.39;102404.28;5072449;28;20166;-61
2023/10/05 08:58:41;;;;;;;10.52;3.38;;;;;;;16.76;80.67;102398.88;5072439;28;20029;-60
2023/10/05 09:01:27;;;;;;;11.25;3.45;;;;;;;16.72;81.83;102403.28;5071986;28;20372;-62
2023/10/05 09:03:54;;;;;;;9.98;3.38;;;;;;;16.71;81.47;102406.81;5070968;28;20024;-61
2023/10/05 09:06:26;;;;;;;11.85;3.50;;;;;;;16.70;80.72;102409.44;5072291;28;20021;-60
2023/10/05 09:11:33;;;;;;;11.43;3.42;;;;;;;16.59;81.38;102412.03;5072445;28;20485;-63
2023/10/05 09:14:13;;;;;;;12.45;3.33;;;;;;;16.61;81.34;102420.91;5072075;28;20025;-60
2023/10/05 09:16:43;;;;;;;12.00;3.50;;;;;;;16.58;81.89;102426.25;5071798;28;20029;-61
2023/10/05 09:19:17;;;;;;;11.45;3.80;;;;;;;16.57;81.79;102434.22;5072037;28;20021;-62
2023/10/05 09:22:10;;;;;;;10.32;3.60;;;;;;;16.58;82.07;102442.25;5071964;28;20474;-60
2023/10/05 09:24:32;;;;;;;11.82;3.42;;;;;;;16.56;82.19;102449.34;5071765;28;20045;-60
2023/10/05 09:27:09;;;;;;;12.98;3.60;;;;;;;16.53;82.03;102449.31;5071828;28;20386;-61
2023/10/05 09:29:36;;;;;;;9.35;3.88;;;;;;;16.53;81.96;102441.31;5072103;28;20035;-62
2023/10/05 09:32:08;;;;;;;13.65;3.90;;;;;;;16.49;81.87;102450.16;5071805;28;20033;-61
2023/10/05 09:34:33;;;;;;;13.07;3.45;;;;;;;16.53;82.67;102449.31;5072047;28;20122;-61
2023/10/05 09:37:05;;;;;;;13.20;3.58;;;;;;;16.55;82.36;102449.34;5070267;28;20061;-62
2023/10/05 09:39:35;;;;;;;10.18;3.33;;;;;;;16.55;82.00;102454.66;5071615;28;20033;-62
2023/10/05 09:42:01;;;;;;;8.70;3.50;;;;;;;16.55;81.73;102447.56;5072142;28;20023;-62
2023/10/05 09:44:31;;;;;;;9.48;3.75;;;;;;;16.59;82.08;102451.16;5071461;28;20514;-61
2023/10/05 09:46:59;;;;;;;10.68;3.50;;;;;;;16.62;81.75;102446.75;5070483;28;20154;-62
2023/10/05 09:49:30;;;;;;;12.43;3.72;;;;;;;16.65;81.52;102441.44;5088556;28;20070;-60
2023/10/05 09:51:57;;;;;;;12.13;3.63;;;;;;;16.68;81.66;102441.47;5112445;28;20472;-60
2023/10/05 09:54:27;;;;;;;11.57;3.40;;;;;;;16.73;81.95;102436.22;5112141;28;20133;-60
2023/10/05 09:56:53;;;;;;;15.63;3.60;;;;;;;16.71;81.58;102437.97;5115890;28;20023;-60
2023/10/05 09:59:19;;;;;;;11.23;3.40;;;;;;;16.73;81.77;102438.88;5103953;28;20047;-61
2023/10/05 10:01:48;;;;;;;11.20;3.72;;;;;;;16.73;81.51;102444.22;5101434;28;20127;-62
2023/10/05 10:04:29;;;;;;;15.13;3.92;;;;;;;16.69;81.49;102451.25;5106723;28;20525;-62
2023/10/05 10:06:58;;;;;;;10.68;3.50;;;;;;;16.73;81.06;102444.22;5103995;28;20032;-61
2023/10/05 10:09:26;;;;;;;14.35;3.78;;;;;;;16.74;81.73;102446.94;5103980;28;20039;-61
2023/10/05 10:11:57;;;;;;;14.68;3.90;;;;;;;16.77;81.24;102451.38;5104515;28;20023;-60
2023/10/05 10:14:26;;;;;;;12.35;3.53;;;;;;;16.77;81.29;102454.94;5108800;28;20032;-61
2023/10/05 10:17:00;;;;;;;12.30;3.30;;;;;;;16.78;81.06;102446.06;5104264;28;20064;-62
2023/10/05 10:19:26;;;;;;;12.85;3.60;;;;;;;16.77;81.34;102446.06;5099776;28;20063;-62
2023/10/05 10:22:07;;;;;;;12.10;3.55;;;;;;;16.78;81.44;102440.72;5104666;28;20023;-60
2023/10/05 10:24:34;;;;;;;11.10;3.78;;;;;;;16.89;81.05;102442.63;5103962;28;20027;-59
2023/10/05 10:27:08;;;;;;;11.70;3.90;;;;;;;16.89;81.18;102443.50;5103012;28;20096;-59
2023/10/05 10:29:46;;;;;;;12.15;4.05;;;;;;;16.92;81.29;102450.69;5099071;28;20342;-60
2023/10/05 10:32:19;;;;;;;13.40;3.83;;;;;;;16.94;81.63;102448.91;5104651;28;20031;-61
2023/10/05 10:35:09;;;;;;;9.45;3.67;;;;;;;17.07;81.01;102441.91;5106389;28;20026;-62
2023/10/05 10:37:41;;;;;;;8.23;3.30;;;;;;;17.15;80.20;102443.75;5101109;28;20032;-61
2023/10/05 10:40:25;;;;;;;;;;;;;;;17.21;80.44;102440.25;5095049;28;20032;-60
2023/10/05 10:43:26;;;;;;;11.88;3.60;;;;;;;17.28;79.45;102443.00;5094791;28;19916;-61
2023/10/05 10:45:46;;;;;;;14.48;3.30;;;;;;;17.40;78.93;102441.31;5090324;28;20497;-60
2023/10/05 10:50:42;;;;;;;13.00;3.85;;;;;;;17.67;78.01;102441.50;5094590;28;20055;-60
2023/10/05 10:53:16;;;;;;;9.32;3.50;;;;;;;17.80;77.55;102455.88;5094370;28;20084;-62
2023/10/05 10:55:51;;;;;;;12.77;3.55;;;;;;;18.01;76.53;102433.72;5094393;28;20043;-61
2023/10/05 10:58:24;;;;;;;12.60;3.42;;;;;;;18.32;75.86;102442.78;5094347;28;20076;-61
2023/10/05 11:01:13;;;;;;;11.65;3.70;;;;;;;18.63;75.67;102433.09;5094477;28;20090;-60
2023/10/05 11:03:41;;;;;;;11.48;3.50;;;;;;;18.84;73.26;102428.69;5094357;28;20085;-61
2023/10/05 11:06:09;;;;;;;11.18;3.20;;;;;;;19.23;72.48;102420.72;5093524;28;20036;-62
2023/10/05 11:08:40;;;;;;;9.98;3.45;;;;;;;19.62;71.14;102428.78;5097183;28;20074;-62
2023/10/05 11:11:09;;;;;;;12.82;3.40;;;;;;;19.95;70.52;102426.00;5103640;28;20023;-62
2023/10/05 11:13:39;;;;;;;16.02;3.60;;;;;;;20.13;68.36;102426.88;5094214;28;20027;-62
2023/10/05 11:16:09;;;;;;;10.95;3.40;;;;;;;20.27;68.15;102428.56;5094108;28;20060;-61
2023/10/05 11:18:39;;;;;;;11.52;3.70;;;;;;;20.57;67.24;102421.31;5093813;28;20481;-62
2023/10/05 11:21:18;;;;;;;12.68;3.50;;;;;;;20.76;67.79;102424.75;5094139;28;20106;-62
2023/10/05 11:23:55;;;;;;;10.60;3.30;;;;;;;20.95;66.13;102428.25;5093916;28;20031;-61
2023/10/05 11:26:33;;;;;;;13.52;3.88;;;;;;;20.92;64.61;102417.50;5093946;28;20032;-61
2023/10/05 11:29:00;;;;;;;9.88;3.40;;;;;;;21.16;63.68;102424.50;5093742;28;20028;-61
2023/10/05 11:31:34;;;;;;;15.20;3.50;;;;;;;21.19;64.24;102422.66;5093713;28;20020;-61
2023/10/05 11:34:09;;;;;;;15.45;4.05;;;;;;;21.33;63.63;102419.03;5093876;28;20081;-61
2023/10/05 11:36:44;;;;;;;12.15;3.72;;;;;;;21.29;62.88;102410.06;5093660;28;20036;-62
2023/10/05 11:39:22;;;;;;;12.02;3.33;;;;;;;21.31;62.74;102421.66;5092312;28;20128;-61
2023/10/05 11:41:48;;;;;;;13.35;3.72;;;;;;;21.05;62.42;102416.50;5093270;28;20477;-61
2023/10/05 11:44:24;;;;;;;9.23;3.80;;;;;;;20.92;64.32;102418.41;5093386;28;20044;-62
2023/10/05 11:46:53;;;;;;;12.00;3.80;;;;;;;20.88;63.36;102418.44;5092909;28;20103;-62
2023/10/05 11:49:20;;;;;;;9.68;3.70;;;;;;;20.75;64.01;102418.50;5093601;28;20031;-62
2023/10/05 11:51:59;;;;;;;8.98;3.65;;;;;;;20.80;63.66;102415.78;5093222;28;20055;-61
2023/10/05 11:54:25;;;;;;;10.55;3.80;;;;;;;20.62;62.90;102419.47;5093588;28;20055;-62
2023/10/05 11:56:53;;;;;;;10.27;3.78;;;;;;;20.48;63.24;102416.88;5096669;28;20084;-61